KAL1505 RKPK-RKPC
Flight info
| Callsign | KAL1505 |
|---|---|
| Flight time | 0h 31m |
| Altitude | 24000 |
| Route | OPONO3 ENGOT Y572 UPGOS UPGOS2M |
| Aircraft | A21N/M-SDE2E3FGHIJ1RWXY/LB1 |
Departure
| Time | 2026-05-04 13:55 |
|---|---|
| Airport | Gimhae International Airport (RKPK) |
Arrival
| Time | 2026-05-04 14:26 |
|---|---|
| Airport | Jeju International Airport (RKPC) |
| Time | Latitude | Longitude | Altitude | Speed | Heading |
|---|---|---|---|---|---|
| 2026-05-04 13:33 | 35.17277 | 128.94386 | 28 ft | 0 kts | 263° |
| 2026-05-04 13:47 | 35.17279 | 128.94407 | 28 ft | 4 kts | 263° |
| 2026-05-04 13:48 | 35.17284 | 128.94437 | 28 ft | 4 kts | 240° |
| 2026-05-04 13:48 | 35.17301 | 128.94458 | 28 ft | 4 kts | 199° |
| 2026-05-04 13:48 | 35.17327 | 128.94463 | 28 ft | 4 kts | 177° |
| 2026-05-04 13:48 | 35.17338 | 128.94462 | 28 ft | 0 kts | 174° |
| 2026-05-04 13:51 | 35.17324 | 128.94464 | 29 ft | 5 kts | 174° |
| 2026-05-04 13:51 | 35.17279 | 128.94470 | 29 ft | 8 kts | 173° |
| 2026-05-04 13:51 | 35.17221 | 128.94478 | 29 ft | 9 kts | 175° |
| 2026-05-04 13:52 | 35.17075 | 128.94494 | 29 ft | 12 kts | 174° |
| 2026-05-04 13:52 | 35.17014 | 128.94492 | 29 ft | 9 kts | 209° |
| 2026-05-04 13:52 | 35.16994 | 128.94413 | 29 ft | 11 kts | 265° |
| 2026-05-04 13:53 | 35.16987 | 128.94315 | 29 ft | 12 kts | 264° |
| 2026-05-04 13:53 | 35.16973 | 128.94206 | 28 ft | 14 kts | 261° |
| 2026-05-04 13:53 | 35.16962 | 128.94089 | 28 ft | 9 kts | 264° |
| 2026-05-04 13:54 | 35.16999 | 128.94053 | 27 ft | 0 kts | 355° |
| 2026-05-04 13:54 | 35.17006 | 128.94052 | 27 ft | 6 kts | 355° |
| 2026-05-04 13:54 | 35.18062 | 128.93918 | 30 ft | 146 kts | 354° |
| 2026-05-04 13:55 | 35.19160 | 128.93767 | 455 ft | 158 kts | 354° |
| 2026-05-04 13:55 | 35.20743 | 128.92342 | 1697 ft | 156 kts | 278° |
| 2026-05-04 13:55 | 35.20658 | 128.91033 | 2264 ft | 159 kts | 261° |
| 2026-05-04 13:56 | 35.20749 | 128.89748 | 2714 ft | 152 kts | 306° |
| 2026-05-04 13:56 | 35.21451 | 128.88783 | 3165 ft | 156 kts | 309° |
| 2026-05-04 13:56 | 35.21937 | 128.85995 | 3822 ft | 199 kts | 251° |
| 2026-05-04 13:57 | 35.20982 | 128.84664 | 4190 ft | 221 kts | 218° |
| 2026-05-04 13:57 | 35.19652 | 128.83536 | 4552 ft | 244 kts | 217° |
| 2026-05-04 13:58 | 35.15074 | 128.79615 | 5031 ft | 280 kts | 217° |
| 2026-05-04 13:58 | 35.11920 | 128.76856 | 4990 ft | 276 kts | 217° |
| 2026-05-04 13:58 | 35.10363 | 128.75491 | 4978 ft | 275 kts | 217° |
| 2026-05-04 13:59 | 35.08827 | 128.74142 | 4967 ft | 274 kts | 217° |
| 2026-05-04 13:59 | 35.07271 | 128.72780 | 5263 ft | 275 kts | 217° |
| 2026-05-04 13:59 | 35.04156 | 128.70051 | 6861 ft | 276 kts | 217° |
| 2026-05-04 14:00 | 35.02589 | 128.68676 | 7581 ft | 278 kts | 218° |
| 2026-05-04 14:00 | 34.99424 | 128.65907 | 9004 ft | 285 kts | 219° |
| 2026-05-04 14:00 | 34.97801 | 128.64487 | 9624 ft | 289 kts | 219° |
| 2026-05-04 14:01 | 34.96158 | 128.63055 | 9935 ft | 293 kts | 219° |
| 2026-05-04 14:01 | 34.94422 | 128.61542 | 10020 ft | 319 kts | 219° |
| 2026-05-04 14:01 | 34.90541 | 128.58153 | 10120 ft | 366 kts | 219° |
| 2026-05-04 14:02 | 34.88417 | 128.56305 | 10293 ft | 383 kts | 218° |
| 2026-05-04 14:02 | 34.86212 | 128.54383 | 10564 ft | 394 kts | 218° |
| 2026-05-04 14:02 | 34.83966 | 128.52422 | 11020 ft | 399 kts | 218° |
| 2026-05-04 14:02 | 34.81723 | 128.50420 | 11534 ft | 400 kts | 221° |
| 2026-05-04 14:03 | 34.79701 | 128.48099 | 12007 ft | 400 kts | 230° |
| 2026-05-04 14:03 | 34.77850 | 128.45547 | 12426 ft | 403 kts | 232° |
| 2026-05-04 14:03 | 34.76011 | 128.42957 | 12850 ft | 406 kts | 232° |
| 2026-05-04 14:03 | 34.74782 | 128.41228 | 13157 ft | 408 kts | 232° |
| 2026-05-04 14:04 | 34.71018 | 128.35981 | 14049 ft | 414 kts | 231° |
| 2026-05-04 14:04 | 34.69118 | 128.33342 | 14446 ft | 415 kts | 231° |
| 2026-05-04 14:04 | 34.67207 | 128.30694 | 14885 ft | 417 kts | 231° |
| 2026-05-04 14:05 | 34.63363 | 128.25362 | 15925 ft | 420 kts | 232° |
| 2026-05-04 14:05 | 34.61435 | 128.22685 | 16459 ft | 421 kts | 232° |
| 2026-05-04 14:05 | 34.59526 | 128.20042 | 16949 ft | 422 kts | 232° |
| 2026-05-04 14:06 | 34.57579 | 128.17347 | 17424 ft | 424 kts | 232° |
| 2026-05-04 14:06 | 34.55634 | 128.14649 | 17885 ft | 426 kts | 232° |
| 2026-05-04 14:06 | 34.53678 | 128.11946 | 18342 ft | 427 kts | 232° |
| 2026-05-04 14:06 | 34.51702 | 128.09225 | 18724 ft | 429 kts | 232° |
| 2026-05-04 14:07 | 34.49726 | 128.06503 | 19099 ft | 430 kts | 232° |
| 2026-05-04 14:07 | 34.47737 | 128.03769 | 19499 ft | 432 kts | 232° |
| 2026-05-04 14:07 | 34.45770 | 128.01067 | 19879 ft | 433 kts | 232° |
| 2026-05-04 14:07 | 34.43773 | 127.98321 | 20105 ft | 433 kts | 232° |
| 2026-05-04 14:08 | 34.41779 | 127.95584 | 20142 ft | 433 kts | 232° |
| 2026-05-04 14:08 | 34.39774 | 127.92835 | 20144 ft | 434 kts | 232° |
| 2026-05-04 14:08 | 34.37768 | 127.90087 | 20133 ft | 434 kts | 232° |
| 2026-05-04 14:08 | 34.35797 | 127.87376 | 20064 ft | 435 kts | 229° |
| 2026-05-04 14:09 | 34.31750 | 127.81837 | 20015 ft | 441 kts | 229° |
| 2026-05-04 14:09 | 34.29707 | 127.79045 | 20008 ft | 444 kts | 228° |
| 2026-05-04 14:10 | 34.25587 | 127.73417 | 20003 ft | 448 kts | 228° |
| 2026-05-04 14:10 | 34.23536 | 127.70620 | 20003 ft | 449 kts | 228° |
| 2026-05-04 14:10 | 34.21448 | 127.67783 | 20002 ft | 450 kts | 228° |
| 2026-05-04 14:10 | 34.19361 | 127.64940 | 20002 ft | 452 kts | 228° |
| 2026-05-04 14:11 | 34.17268 | 127.62091 | 19999 ft | 452 kts | 228° |
| 2026-05-04 14:11 | 34.13084 | 127.56404 | 19404 ft | 462 kts | 228° |
| 2026-05-04 14:11 | 34.10933 | 127.53479 | 19145 ft | 467 kts | 228° |
| 2026-05-04 14:12 | 34.08776 | 127.50546 | 18827 ft | 465 kts | 228° |
| 2026-05-04 14:12 | 34.06648 | 127.47659 | 18227 ft | 455 kts | 228° |
| 2026-05-04 14:12 | 34.02495 | 127.42025 | 16811 ft | 443 kts | 230° |
| 2026-05-04 14:13 | 34.00748 | 127.38996 | 16180 ft | 436 kts | 242° |
| 2026-05-04 14:13 | 33.99663 | 127.35628 | 15587 ft | 431 kts | 256° |
| 2026-05-04 14:13 | 33.98906 | 127.32129 | 15152 ft | 437 kts | 249° |
| 2026-05-04 14:13 | 33.97415 | 127.28947 | 15009 ft | 436 kts | 233° |
| 2026-05-04 14:14 | 33.95474 | 127.26120 | 14991 ft | 436 kts | 230° |
| 2026-05-04 14:14 | 33.91773 | 127.20523 | 14697 ft | 409 kts | 233° |
| 2026-05-04 14:14 | 33.90121 | 127.17830 | 14483 ft | 391 kts | 233° |
| 2026-05-04 14:15 | 33.87085 | 127.12789 | 14111 ft | 358 kts | 234° |
| 2026-05-04 14:15 | 33.84280 | 127.08113 | 13764 ft | 328 kts | 234° |
| 2026-05-04 14:16 | 33.81679 | 127.03797 | 12772 ft | 315 kts | 234° |
| 2026-05-04 14:16 | 33.80398 | 127.01666 | 12151 ft | 313 kts | 234° |
| 2026-05-04 14:17 | 33.77896 | 126.97503 | 11004 ft | 306 kts | 234° |
| 2026-05-04 14:17 | 33.76651 | 126.95437 | 10447 ft | 303 kts | 234° |
| 2026-05-04 14:17 | 33.74196 | 126.91374 | 9306 ft | 297 kts | 234° |
| 2026-05-04 14:18 | 33.72988 | 126.89370 | 8753 ft | 294 kts | 234° |
| 2026-05-04 14:18 | 33.70623 | 126.85454 | 7643 ft | 288 kts | 234° |
| 2026-05-04 14:19 | 33.68298 | 126.81606 | 6741 ft | 277 kts | 234° |
| 2026-05-04 14:19 | 33.67186 | 126.79771 | 6575 ft | 265 kts | 234° |
| 2026-05-04 14:19 | 33.66129 | 126.78025 | 6401 ft | 252 kts | 234° |
| 2026-05-04 14:19 | 33.65128 | 126.76365 | 6149 ft | 238 kts | 235° |
| 2026-05-04 14:20 | 33.64249 | 126.74738 | 5782 ft | 227 kts | 238° |
| 2026-05-04 14:20 | 33.63457 | 126.73183 | 5340 ft | 209 kts | 238° |
| 2026-05-04 14:20 | 33.62721 | 126.71729 | 4790 ft | 200 kts | 238° |
| 2026-05-04 14:21 | 33.61385 | 126.69113 | 4289 ft | 162 kts | 238° |
| 2026-05-04 14:21 | 33.60828 | 126.68035 | 3810 ft | 148 kts | 238° |
| 2026-05-04 14:21 | 33.60306 | 126.67009 | 3316 ft | 145 kts | 238° |
| 2026-05-04 14:21 | 33.59785 | 126.65974 | 2872 ft | 145 kts | 239° |
| 2026-05-04 14:22 | 33.59261 | 126.64940 | 2613 ft | 145 kts | 238° |
| 2026-05-04 14:22 | 33.58738 | 126.63913 | 2396 ft | 144 kts | 238° |
| 2026-05-04 14:22 | 33.58213 | 126.62895 | 2173 ft | 143 kts | 238° |
| 2026-05-04 14:22 | 33.57694 | 126.61880 | 1940 ft | 143 kts | 238° |
| 2026-05-04 14:23 | 33.56658 | 126.59857 | 1609 ft | 142 kts | 238° |
| 2026-05-04 14:23 | 33.56143 | 126.58846 | 1620 ft | 142 kts | 238° |
| 2026-05-04 14:23 | 33.55618 | 126.57843 | 1497 ft | 142 kts | 238° |
| 2026-05-04 14:24 | 33.55109 | 126.56835 | 1290 ft | 141 kts | 238° |
| 2026-05-04 14:24 | 33.54598 | 126.55836 | 1086 ft | 140 kts | 238° |
| 2026-05-04 14:24 | 33.54094 | 126.54849 | 898 ft | 140 kts | 238° |
| 2026-05-04 14:24 | 33.53576 | 126.53845 | 710 ft | 140 kts | 238° |
| 2026-05-04 14:25 | 33.53088 | 126.52855 | 532 ft | 139 kts | 239° |
| 2026-05-04 14:25 | 33.52064 | 126.50888 | 314 ft | 139 kts | 238° |
| 2026-05-04 14:25 | 33.51561 | 126.49896 | 155 ft | 139 kts | 237° |
| 2026-05-04 14:26 | 33.51070 | 126.48945 | 94 ft | 124 kts | 236° |
| 2026-05-04 14:26 | 33.50714 | 126.48255 | 96 ft | 52 kts | 240° |
| 2026-05-04 14:26 | 33.50587 | 126.48037 | 97 ft | 27 kts | 216° |
| 2026-05-04 14:26 | 33.50436 | 126.47922 | 98 ft | 11 kts | 204° |
| 2026-05-04 14:27 | 33.50386 | 126.47932 | 98 ft | 7 kts | 120° |
| 2026-05-04 14:27 | 33.50387 | 126.47993 | 98 ft | 9 kts | 70° |
| 2026-05-04 14:27 | 33.50423 | 126.48060 | 99 ft | 10 kts | 57° |
| 2026-05-04 14:27 | 33.50462 | 126.48139 | 100 ft | 12 kts | 60° |
| 2026-05-04 14:28 | 33.50506 | 126.48229 | 100 ft | 13 kts | 59° |
| 2026-05-04 14:28 | 33.50558 | 126.48327 | 97 ft | 15 kts | 57° |
| 2026-05-04 14:28 | 33.50614 | 126.48434 | 98 ft | 16 kts | 60° |
| 2026-05-04 14:28 | 33.50671 | 126.48552 | 97 ft | 17 kts | 57° |
| 2026-05-04 14:29 | 33.50789 | 126.48782 | 95 ft | 11 kts | 59° |
| 2026-05-04 14:29 | 33.50719 | 126.48905 | 94 ft | 5 kts | 146° |
| 2026-05-04 14:30 | 33.50704 | 126.48947 | 98 ft | 7 kts | 84° |
| 2026-05-04 14:30 | 33.50726 | 126.49004 | 96 ft | 8 kts | 59° |
| 2026-05-04 14:30 | 33.50752 | 126.49057 | 95 ft | 0 kts | 62° |
| 2026-05-04 14:31 | 33.50749 | 126.49051 | 94 ft | 1 kts | 62° |
| 2026-05-04 14:31 | 33.50735 | 126.49018 | 96 ft | 3 kts | 62° |
| 2026-05-04 14:32 | 33.50712 | 126.48968 | 94 ft | 2 kts | 62° |
| 2026-05-04 14:32 | 33.50711 | 126.48967 | 94 ft | 2 kts | 61° |
| 2026-05-04 14:32 | 33.50731 | 126.48980 | 96 ft | 4 kts | 4° |
| 2026-05-04 14:32 | 33.50762 | 126.48966 | 95 ft | 6 kts | 331° |
| 2026-05-04 14:33 | 33.50774 | 126.48957 | 96 ft | 1 kts | 328° |
| 2026-05-04 14:33 | 33.50780 | 126.48953 | 96 ft | 0 kts | 328° |